Rize — 9HA2781 — position and weather

sailwx.info

Track history (hours):
 
Tides and Currents Weather Stations Pressure Air Temp Water Temp Dewpoint Dewpoint Depression Visibility Wind Speed Wind Dir Waves Ship Positions

Rize

Last reported at 2014-Jul-30 05:29 UTC. Time now 2014-Jul-31 01:23 UTC.
Position N 59°59' E 026°52'.

Length 229 m; draft 6.9 m.

Type: Cargo ship. MMSI: 215677000.

Date/timePositionNaut miles runAvg speedWind from/ knotsBaromVisibWave heightAir tempDewpointWater temp
2014-Jul-30 05:29N 59°59' E 026°52'1314.2
2014-Jul-30 04:33N 59°57' E 026°25'1612.8
2014-Jul-30 03:19N 59°53' E 025°55'2212.6
2014-Jul-30 01:33N 59°49' E 025°12'1312.6
2014-Jul-30 00:33N 59°46' E 024°47'1812.5
2014-Jul-29 23:09N 59°41' E 024°14'912.2
2014-Jul-29 22:25N 59°39' E 023°57'1011.9
2014-Jul-29 21:33N 59°35' E 023°37'1212.1
2014-Jul-29 20:33N 59°31' E 023°15'1211.9
2014-Jul-29 19:33N 59°28' E 022°53'1312.7
2014-Jul-29 18:33N 59°23' E 022°30'1812.5
2014-Jul-29 17:09N 59°12' E 022°02'712.1
2014-Jul-29 16:33N 59°08' E 021°51'1212.1
2014-Jul-29 15:33N 58°57' E 021°39'10412.3
2014-Jul-29 07:08N 57°27' E 020°01'711.4
2014-Jul-29 06:33N 57°22' E 019°55'1313.3
2014-Jul-29 05:33N 57°10' E 019°43'1312.8
2014-Jul-29 04:33N 56°59' E 019°32'1111.3
2014-Jul-29 03:33N 56°49' E 019°21'1111.1
2014-Jul-29 02:33N 56°40' E 019°11'1411.6
2014-Jul-29 01:20N 56°27' E 018°58'810.9
2014-Jul-29 00:33N 56°20' E 018°51'1111.3
2014-Jul-28 23:33N 56°14' E 018°34'1111.4
2014-Jul-28 22:33N 56°08' E 018°16'1212.4
2014-Jul-28 21:33N 56°01' E 017°58'1211.6
2014-Jul-28 20:33N 55°55' E 017°40'1211.8
2014-Jul-28 19:33N 55°52' E 017°20'1312.9
2014-Jul-28 18:33N 55°49' E 016°57'1412.2
2014-Jul-28 17:24N 55°46' E 016°33'1011.5
2014-Jul-28 16:33N 55°44' E 016°16'1211.6
2014-Jul-28 15:33N 55°41' E 015°56'1212.2
2014-Jul-28 14:33N 55°38' E 015°35'1212.0
2014-Jul-28 13:33N 55°34' E 015°15'1111.2
2014-Jul-28 12:33N 55°29' E 014°57'1211.5
2014-Jul-28 11:33N 55°24' E 014°39'1212.2
2014-Jul-28 10:33N 55°15' E 014°26'1010.3
2014-Jul-28 09:33N 55°09' E 014°10'1110.9
2014-Jul-28 08:33N 55°10' E 013°51'1211.4
2014-Jul-28 07:33N 55°11' E 013°31'1313.5
2014-Jul-28 06:33N 55°12' E 013°08'1312.9
2014-Jul-28 05:33N 55°16' E 012°46'9 9.0
2014-Jul-28 04:33N 55°24' E 012°39'1111.2
2014-Jul-28 03:33N 55°35' E 012°42'1212.2
2014-Jul-28 02:33N 55°47' E 012°42'1413.5
2014-Jul-28 01:33N 56°01' E 012°40'1111.3
2014-Jul-28 00:34N 56°09' E 012°26'1111.1
2014-Jul-27 23:33N 56°15' E 012°09'9 8.8
2014-Jul-27 22:34N 56°22' E 012°01'1110.9
2014-Jul-27 21:34N 56°33' E 011°56'1111.0
2014-Jul-27 20:33N 56°44' E 011°51'1110.9
2014-Jul-27 19:33N 56°54' E 011°46'1111.0
2014-Jul-27 18:33N 57°05' E 011°39'1111.2
2014-Jul-27 17:34N 57°15' E 011°32'1211.8
2014-Jul-27 16:34N 57°26' E 011°24'1110.6
2014-Jul-27 15:33N 57°34' E 011°11'1211.6
2014-Jul-27 14:34N 57°42' E 010°55'1212.4
2014-Jul-27 13:34N 57°50' E 010°38'1313.1
2014-Jul-27 12:34N 57°51' E 010°13'1211.9
2014-Jul-27 11:32N 57°46' E 009°52'210 8.6
2014-Jul-26 11:14N 54°37' E 007°10'811.4
2014-Jul-26 10:33N 54°29' E 007°15'1111.0
2014-Jul-26 09:33N 54°19' E 007°22'1110.7
2014-Jul-26 08:33N 54°10' E 007°30'1111.2
2014-Jul-26 07:33N 53°60' E 007°39'1010.2
2014-Jul-26 06:33N 53°52' E 007°51'1211.9
2014-Jul-26 05:33N 53°47' E 008°09'1414.2
2014-Jul-26 04:33N 53°38' E 008°27'10 9.7
2014-Jul-26 03:33N 53°28' E 008°30'1312.8
2014-Jul-26 02:33N 53°15' E 008°29'9 9.2
2014-Jul-26 01:33N 53°08' E 008°38'3 3.0
2014-Jul-26 00:33N 53°07' E 008°43'0 0.4
2014-Jul-25 23:34N 53°07' E 008°43'0 0.1
2014-Jul-25 22:33N 53°07' E 008°43'0 0.0
2014-Jul-25 21:33N 53°07' E 008°43'0 0.0
2014-Jul-25 20:33N 53°07' E 008°43'0 0.0
2014-Jul-25 19:33N 53°07' E 008°43'0 0.0
2014-Jul-25 18:33N 53°07' E 008°43'0 0.0
2014-Jul-25 17:33N 53°07' E 008°43'0 0.0
2014-Jul-25 16:33N 53°07' E 008°43'0 0.0
2014-Jul-25 15:33N 53°07' E 008°43'0 0.0
2014-Jul-25 14:33N 53°07' E 008°43'0 0.0
2014-Jul-25 13:33N 53°07' E 008°43'0 0.0
2014-Jul-25 12:33N 53°07' E 008°43'0 0.0
2014-Jul-25 11:33N 53°07' E 008°43'0 0.0
2014-Jul-25 10:33N 53°07' E 008°43'0 0.0
2014-Jul-25 09:33N 53°07' E 008°43'0 0.0
2014-Jul-25 08:33N 53°07' E 008°43'0 0.0
2014-Jul-25 07:33N 53°07' E 008°43'0 0.0
2014-Jul-25 06:33N 53°07' E 008°43'0 0.0
2014-Jul-25 05:33N 53°07' E 008°43'0 0.0
2014-Jul-25 04:33N 53°07' E 008°43'0 0.0
2014-Jul-25 03:33N 53°07' E 008°43'0 0.0
2014-Jul-25 02:33N 53°07' E 008°43'0 0.0
2014-Jul-25 01:33N 53°07' E 008°43'0 0.0
2014-Jul-25 00:33N 53°07' E 008°43'0 0.0
2014-Jul-24 23:33N 53°07' E 008°43'0 0.0
2014-Jul-24 22:33N 53°07' E 008°43'0 0.0
2014-Jul-24 21:33N 53°07' E 008°43'0 0.0
2014-Jul-24 20:33N 53°07' E 008°43'0 0.0
2014-Jul-24 19:33N 53°07' E 008°43'0 0.0
2014-Jul-24 18:33N 53°07' E 008°43'0 0.0
2014-Jul-24 17:33N 53°07' E 008°43'0 0.0
2014-Jul-24 16:33N 53°07' E 008°43'0 0.0
2014-Jul-24 15:33N 53°07' E 008°43'0 0.0
2014-Jul-24 14:33N 53°07' E 008°43'0 0.0
2014-Jul-24 13:33N 53°07' E 008°43'0 0.0
2014-Jul-24 12:33N 53°07' E 008°43'0 0.0
2014-Jul-24 11:33N 53°07' E 008°43'0 0.0
2014-Jul-24 10:33N 53°07' E 008°43'0 0.0
2014-Jul-24 09:33N 53°07' E 008°43'0 0.0
2014-Jul-24 08:33N 53°07' E 008°43'0 0.0
2014-Jul-24 07:33N 53°07' E 008°43'0 0.0
2014-Jul-24 06:33N 53°07' E 008°43'0 0.0
2014-Jul-24 05:30N 53°07' E 008°43'0 0.0
2014-Jul-24 04:33N 53°07' E 008°43'0 0.0
2014-Jul-24 03:33N 53°07' E 008°43'0 0.0
2014-Jul-24 02:33N 53°07' E 008°43'0 0.0
2014-Jul-24 01:33N 53°07' E 008°43'0 0.0
2014-Jul-24 00:33N 53°07' E 008°43'0 0.0
2014-Jul-23 23:33N 53°07' E 008°43'0 0.0
2014-Jul-23 22:33N 53°07' E 008°43'0 0.0
2014-Jul-23 21:33N 53°07' E 008°43'0 0.0
2014-Jul-23 20:33N 53°07' E 008°43'0 0.0
2014-Jul-23 19:33N 53°07' E 008°43'0 0.0
2014-Jul-23 18:33N 53°07' E 008°43'0 0.0
2014-Jul-23 17:33N 53°07' E 008°43'0 0.0
2014-Jul-23 16:33N 53°07' E 008°43'0 0.0
2014-Jul-23 15:33N 53°07' E 008°43'0 0.0
2014-Jul-23 14:33N 53°07' E 008°43'0 0.0
2014-Jul-23 13:33N 53°07' E 008°44'0 0.0
2014-Jul-23 12:33N 53°07' E 008°44'0 0.0
2014-Jul-23 11:33N 53°07' E 008°43'0 0.0
2014-Jul-23 10:33N 53°07' E 008°43'0 0.0
2014-Jul-23 09:33N 53°07' E 008°43'0 0.0
2014-Jul-23 08:33N 53°07' E 008°43'0 0.0
2014-Jul-23 07:33N 53°07' E 008°43'0 0.0
2014-Jul-23 06:33N 53°07' E 008°43'0 0.0
2014-Jul-23 05:33N 53°07' E 008°43'0 0.0
2014-Jul-23 04:33N 53°07' E 008°43'0 0.0
2014-Jul-23 03:33N 53°07' E 008°43'0 0.0
2014-Jul-23 02:33N 53°07' E 008°43'0 0.0
2014-Jul-23 01:33N 53°07' E 008°43'0 0.0
2014-Jul-23 00:33N 53°07' E 008°43'0 0.0
2014-Jul-22 23:33N 53°07' E 008°43'0 0.0
2014-Jul-22 22:33N 53°07' E 008°43'0 0.0
2014-Jul-22 21:33N 53°07' E 008°43'0 0.0
2014-Jul-22 20:33N 53°07' E 008°43'0 0.0
2014-Jul-22 19:33N 53°07' E 008°43'0 0.0
2014-Jul-22 18:33N 53°07' E 008°43'0 0.0
2014-Jul-22 17:33N 53°07' E 008°43'0 0.0
2014-Jul-22 16:33N 53°07' E 008°43'0 0.0
2014-Jul-22 15:33N 53°07' E 008°43'0 0.0
2014-Jul-22 14:33N 53°07' E 008°43'0 0.0
2014-Jul-22 13:33N 53°07' E 008°43'0 0.0
2014-Jul-22 12:33N 53°07' E 008°43'0 0.0
2014-Jul-22 11:33N 53°07' E 008°43'0 0.0
2014-Jul-22 10:33N 53°07' E 008°43'0 0.5
2014-Jul-22 09:33N 53°07' E 008°43'0 0.4
2014-Jul-22 08:34N 53°07' E 008°42'6 6.1
2014-Jul-22 07:33N 53°11' E 008°34'9 9.1
2014-Jul-22 06:33N 53°19' E 008°29'1010.0
2014-Jul-22 05:33N 53°29' E 008°30'0 0.1
2014-Jul-22 04:31N 53°29' E 008°30'0 0.0
2014-Jul-22 03:31N 53°29' E 008°30'0 0.0
2014-Jul-22 02:31N 53°29' E 008°30'0 0.0
2014-Jul-22 01:31N 53°29' E 008°30'0 0.0
2014-Jul-22 00:31N 53°29' E 008°30'0 0.0
2014-Jul-21 23:31N 53°29' E 008°30'0 0.0
2014-Jul-21 22:31N 53°29' E 008°30'0 0.0
2014-Jul-21 21:31N 53°29' E 008°30'0 0.0
2014-Jul-21 20:31N 53°29' E 008°30'0 0.0
2014-Jul-21 20:16N 53°29' E 008°30'0 0.0
2014-Jul-21 19:31N 53°29' E 008°30'0 0.0
2014-Jul-21 18:31N 53°29' E 008°30'0 0.0
2014-Jul-21 17:31N 53°29' E 008°30'0 0.0
2014-Jul-21 16:31N 53°29' E 008°30'0 0.0
2014-Jul-21 15:31N 53°29' E 008°30'0 0.0
2014-Jul-21 14:31N 53°29' E 008°30'0 0.0
2014-Jul-21 13:31N 53°29' E 008°30'0 0.0
2014-Jul-21 12:31N 53°29' E 008°30'0 0.0
2014-Jul-21 11:31N 53°29' E 008°30'0 0.0
2014-Jul-21 10:31N 53°29' E 008°30'0 0.0
2014-Jul-21 09:31N 53°29' E 008°30'0 0.0
2014-Jul-21 08:31N 53°29' E 008°30'0 0.0
2014-Jul-21 07:31N 53°29' E 008°30'0 0.0
2014-Jul-21 06:31N 53°29' E 008°30'0 0.0
2014-Jul-21 05:28N 53°29' E 008°30'0 0.0
2014-Jul-21 04:28N 53°29' E 008°30'0 0.0
2014-Jul-21 03:31N 53°29' E 008°30'0 0.0
2014-Jul-21 02:31N 53°29' E 008°30'0 0.0
2014-Jul-21 01:31N 53°29' E 008°30'0 0.0
2014-Jul-21 00:28N 53°29' E 008°30'0 0.0
2014-Jul-20 23:31N 53°29' E 008°30'0 0.0
2014-Jul-20 22:31N 53°29' E 008°30'0 0.0
2014-Jul-20 21:31N 53°29' E 008°30'0 0.0
2014-Jul-20 20:31N 53°29' E 008°30'0 0.3
2014-Jul-20 19:33N 53°30' E 008°30'7 6.7
2014-Jul-20 18:33N 53°36' E 008°30'1313.3
2014-Jul-20 17:33N 53°45' E 008°13'1312.8
2014-Jul-20 16:33N 53°52' E 007°54'10 7.9
2014-Jul-20 15:15N 53°54' E 007°37'38 9.7
2014-Jul-20 11:19N 53°47' E 006°34'910.1
2014-Jul-20 10:26N 53°44' E 006°19'9 9.9
2014-Jul-20 09:33N 53°42' E 006°05'1010.1
2014-Jul-20 08:34N 53°38' E 005°49'1010.3
2014-Jul-20 07:33N 53°35' E 005°32'1110.9
2014-Jul-20 06:33N 53°32' E 005°15'1110.9
2014-Jul-20 05:33N 53°28' E 004°58'  
Track history (hours):
 
Tides and Currents Weather Stations Pressure Air Temp Water Temp Dewpoint Dewpoint Depression Visibility Wind Speed Wind Dir Waves Ship Positions

Rize

Last reported at 2014-Jul-30 05:29 UTC. Time now 2014-Jul-31 01:23 UTC.
Position N 59°59' E 026°52'.

Length 229 m; draft 6.9 m.

Type: Cargo ship. MMSI: 215677000.

Date/timePositionNaut miles runAvg speedWind from/ knotsBaromVisibWave heightAir tempDewpointWater temp
2014-Jul-30 05:29N 59°59' E 026°52'1314.2
2014-Jul-30 04:33N 59°57' E 026°25'1612.8
2014-Jul-30 03:19N 59°53' E 025°55'2212.6
2014-Jul-30 01:33N 59°49' E 025°12'1312.6
2014-Jul-30 00:33N 59°46' E 024°47'1812.5
2014-Jul-29 23:09N 59°41' E 024°14'912.2
2014-Jul-29 22:25N 59°39' E 023°57'1011.9
2014-Jul-29 21:33N 59°35' E 023°37'1212.1
2014-Jul-29 20:33N 59°31' E 023°15'1211.9
2014-Jul-29 19:33N 59°28' E 022°53'1312.7
2014-Jul-29 18:33N 59°23' E 022°30'1812.5
2014-Jul-29 17:09N 59°12' E 022°02'712.1
2014-Jul-29 16:33N 59°08' E 021°51'1212.1
2014-Jul-29 15:33N 58°57' E 021°39'10412.3
2014-Jul-29 07:08N 57°27' E 020°01'711.4
2014-Jul-29 06:33N 57°22' E 019°55'1313.3
2014-Jul-29 05:33N 57°10' E 019°43'1312.8
2014-Jul-29 04:33N 56°59' E 019°32'1111.3
2014-Jul-29 03:33N 56°49' E 019°21'1111.1
2014-Jul-29 02:33N 56°40' E 019°11'1411.6
2014-Jul-29 01:20N 56°27' E 018°58'810.9
2014-Jul-29 00:33N 56°20' E 018°51'1111.3
2014-Jul-28 23:33N 56°14' E 018°34'1111.4
2014-Jul-28 22:33N 56°08' E 018°16'1212.4
2014-Jul-28 21:33N 56°01' E 017°58'1211.6
2014-Jul-28 20:33N 55°55' E 017°40'1211.8
2014-Jul-28 19:33N 55°52' E 017°20'1312.9
2014-Jul-28 18:33N 55°49' E 016°57'1412.2
2014-Jul-28 17:24N 55°46' E 016°33'1011.5
2014-Jul-28 16:33N 55°44' E 016°16'1211.6
2014-Jul-28 15:33N 55°41' E 015°56'1212.2
2014-Jul-28 14:33N 55°38' E 015°35'1212.0
2014-Jul-28 13:33N 55°34' E 015°15'1111.2
2014-Jul-28 12:33N 55°29' E 014°57'1211.5
2014-Jul-28 11:33N 55°24' E 014°39'1212.2
2014-Jul-28 10:33N 55°15' E 014°26'1010.3
2014-Jul-28 09:33N 55°09' E 014°10'1110.9
2014-Jul-28 08:33N 55°10' E 013°51'1211.4
2014-Jul-28 07:33N 55°11' E 013°31'1313.5
2014-Jul-28 06:33N 55°12' E 013°08'1312.9
2014-Jul-28 05:33N 55°16' E 012°46'9 9.0
2014-Jul-28 04:33N 55°24' E 012°39'1111.2
2014-Jul-28 03:33N 55°35' E 012°42'1212.2
2014-Jul-28 02:33N 55°47' E 012°42'1413.5
2014-Jul-28 01:33N 56°01' E 012°40'1111.3
2014-Jul-28 00:34N 56°09' E 012°26'1111.1
2014-Jul-27 23:33N 56°15' E 012°09'9 8.8
2014-Jul-27 22:34N 56°22' E 012°01'1110.9
2014-Jul-27 21:34N 56°33' E 011°56'1111.0
2014-Jul-27 20:33N 56°44' E 011°51'1110.9
2014-Jul-27 19:33N 56°54' E 011°46'1111.0
2014-Jul-27 18:33N 57°05' E 011°39'1111.2
2014-Jul-27 17:34N 57°15' E 011°32'1211.8
2014-Jul-27 16:34N 57°26' E 011°24'1110.6
2014-Jul-27 15:33N 57°34' E 011°11'1211.6
2014-Jul-27 14:34N 57°42' E 010°55'1212.4
2014-Jul-27 13:34N 57°50' E 010°38'1313.1
2014-Jul-27 12:34N 57°51' E 010°13'1211.9
2014-Jul-27 11:32N 57°46' E 009°52'210 8.6
2014-Jul-26 11:14N 54°37' E 007°10'811.4
2014-Jul-26 10:33N 54°29' E 007°15'1111.0
2014-Jul-26 09:33N 54°19' E 007°22'1110.7
2014-Jul-26 08:33N 54°10' E 007°30'1111.2
2014-Jul-26 07:33N 53°60' E 007°39'1010.2
2014-Jul-26 06:33N 53°52' E 007°51'1211.9
2014-Jul-26 05:33N 53°47' E 008°09'1414.2
2014-Jul-26 04:33N 53°38' E 008°27'10 9.7
2014-Jul-26 03:33N 53°28' E 008°30'1312.8
2014-Jul-26 02:33N 53°15' E 008°29'9 9.2
2014-Jul-26 01:33N 53°08' E 008°38'3 3.0
2014-Jul-26 00:33N 53°07' E 008°43'0 0.4
2014-Jul-25 23:34N 53°07' E 008°43'0 0.1
2014-Jul-25 22:33N 53°07' E 008°43'0 0.0
2014-Jul-25 21:33N 53°07' E 008°43'0 0.0
2014-Jul-25 20:33N 53°07' E 008°43'0 0.0
2014-Jul-25 19:33N 53°07' E 008°43'0 0.0
2014-Jul-25 18:33N 53°07' E 008°43'0 0.0
2014-Jul-25 17:33N 53°07' E 008°43'0 0.0
2014-Jul-25 16:33N 53°07' E 008°43'0 0.0
2014-Jul-25 15:33N 53°07' E 008°43'0 0.0
2014-Jul-25 14:33N 53°07' E 008°43'0 0.0
2014-Jul-25 13:33N 53°07' E 008°43'0 0.0
2014-Jul-25 12:33N 53°07' E 008°43'0 0.0
2014-Jul-25 11:33N 53°07' E 008°43'0 0.0
2014-Jul-25 10:33N 53°07' E 008°43'0 0.0
2014-Jul-25 09:33N 53°07' E 008°43'0 0.0
2014-Jul-25 08:33N 53°07' E 008°43'0 0.0
2014-Jul-25 07:33N 53°07' E 008°43'0 0.0
2014-Jul-25 06:33N 53°07' E 008°43'0 0.0
2014-Jul-25 05:33N 53°07' E 008°43'0 0.0
2014-Jul-25 04:33N 53°07' E 008°43'0 0.0
2014-Jul-25 03:33N 53°07' E 008°43'0 0.0
2014-Jul-25 02:33N 53°07' E 008°43'0 0.0
2014-Jul-25 01:33N 53°07' E 008°43'0 0.0
2014-Jul-25 00:33N 53°07' E 008°43'0 0.0
2014-Jul-24 23:33N 53°07' E 008°43'0 0.0
2014-Jul-24 22:33N 53°07' E 008°43'0 0.0
2014-Jul-24 21:33N 53°07' E 008°43'0 0.0
2014-Jul-24 20:33N 53°07' E 008°43'0 0.0
2014-Jul-24 19:33N 53°07' E 008°43'0 0.0
2014-Jul-24 18:33N 53°07' E 008°43'0 0.0
2014-Jul-24 17:33N 53°07' E 008°43'0 0.0
2014-Jul-24 16:33N 53°07' E 008°43'0 0.0
2014-Jul-24 15:33N 53°07' E 008°43'0 0.0
2014-Jul-24 14:33N 53°07' E 008°43'0 0.0
2014-Jul-24 13:33N 53°07' E 008°43'0 0.0
2014-Jul-24 12:33N 53°07' E 008°43'0 0.0
2014-Jul-24 11:33N 53°07' E 008°43'0 0.0
2014-Jul-24 10:33N 53°07' E 008°43'0 0.0
2014-Jul-24 09:33N 53°07' E 008°43'0 0.0
2014-Jul-24 08:33N 53°07' E 008°43'0 0.0
2014-Jul-24 07:33N 53°07' E 008°43'0 0.0
2014-Jul-24 06:33N 53°07' E 008°43'0 0.0
2014-Jul-24 05:30N 53°07' E 008°43'0 0.0
2014-Jul-24 04:33N 53°07' E 008°43'0 0.0
2014-Jul-24 03:33N 53°07' E 008°43'0 0.0
2014-Jul-24 02:33N 53°07' E 008°43'0 0.0
2014-Jul-24 01:33N 53°07' E 008°43'0 0.0
2014-Jul-24 00:33N 53°07' E 008°43'0 0.0
2014-Jul-23 23:33N 53°07' E 008°43'0 0.0
2014-Jul-23 22:33N 53°07' E 008°43'0 0.0
2014-Jul-23 21:33N 53°07' E 008°43'0 0.0
2014-Jul-23 20:33N 53°07' E 008°43'0 0.0
2014-Jul-23 19:33N 53°07' E 008°43'0 0.0
2014-Jul-23 18:33N 53°07' E 008°43'0 0.0
2014-Jul-23 17:33N 53°07' E 008°43'0 0.0
2014-Jul-23 16:33N 53°07' E 008°43'0 0.0
2014-Jul-23 15:33N 53°07' E 008°43'0 0.0
2014-Jul-23 14:33N 53°07' E 008°43'0 0.0
2014-Jul-23 13:33N 53°07' E 008°44'0 0.0
2014-Jul-23 12:33N 53°07' E 008°44'0 0.0
2014-Jul-23 11:33N 53°07' E 008°43'0 0.0
2014-Jul-23 10:33N 53°07' E 008°43'0 0.0
2014-Jul-23 09:33N 53°07' E 008°43'0 0.0
2014-Jul-23 08:33N 53°07' E 008°43'0 0.0
2014-Jul-23 07:33N 53°07' E 008°43'0 0.0
2014-Jul-23 06:33N 53°07' E 008°43'0 0.0
2014-Jul-23 05:33N 53°07' E 008°43'0 0.0
2014-Jul-23 04:33N 53°07' E 008°43'0 0.0
2014-Jul-23 03:33N 53°07' E 008°43'0 0.0
2014-Jul-23 02:33N 53°07' E 008°43'0 0.0
2014-Jul-23 01:33N 53°07' E 008°43'0 0.0
2014-Jul-23 00:33N 53°07' E 008°43'0 0.0
2014-Jul-22 23:33N 53°07' E 008°43'0 0.0
2014-Jul-22 22:33N 53°07' E 008°43'0 0.0
2014-Jul-22 21:33N 53°07' E 008°43'0 0.0
2014-Jul-22 20:33N 53°07' E 008°43'0 0.0
2014-Jul-22 19:33N 53°07' E 008°43'0 0.0
2014-Jul-22 18:33N 53°07' E 008°43'0 0.0
2014-Jul-22 17:33N 53°07' E 008°43'0 0.0
2014-Jul-22 16:33N 53°07' E 008°43'0 0.0
2014-Jul-22 15:33N 53°07' E 008°43'0 0.0
2014-Jul-22 14:33N 53°07' E 008°43'0 0.0
2014-Jul-22 13:33N 53°07' E 008°43'0 0.0
2014-Jul-22 12:33N 53°07' E 008°43'0 0.0
2014-Jul-22 11:33N 53°07' E 008°43'0 0.0
2014-Jul-22 10:33N 53°07' E 008°43'0 0.5
2014-Jul-22 09:33N 53°07' E 008°43'0 0.4
2014-Jul-22 08:34N 53°07' E 008°42'6 6.1
2014-Jul-22 07:33N 53°11' E 008°34'9 9.1
2014-Jul-22 06:33N 53°19' E 008°29'1010.0
2014-Jul-22 05:33N 53°29' E 008°30'0 0.1
2014-Jul-22 04:31N 53°29' E 008°30'0 0.0
2014-Jul-22 03:31N 53°29' E 008°30'0 0.0
2014-Jul-22 02:31N 53°29' E 008°30'0 0.0
2014-Jul-22 01:31N 53°29' E 008°30'0 0.0
2014-Jul-22 00:31N 53°29' E 008°30'0 0.0
2014-Jul-21 23:31N 53°29' E 008°30'0 0.0
2014-Jul-21 22:31N 53°29' E 008°30'0 0.0
2014-Jul-21 21:31N 53°29' E 008°30'0 0.0
2014-Jul-21 20:31N 53°29' E 008°30'0 0.0
2014-Jul-21 20:16N 53°29' E 008°30'0 0.0
2014-Jul-21 19:31N 53°29' E 008°30'0 0.0
2014-Jul-21 18:31N 53°29' E 008°30'0 0.0
2014-Jul-21 17:31N 53°29' E 008°30'0 0.0
2014-Jul-21 16:31N 53°29' E 008°30'0 0.0
2014-Jul-21 15:31N 53°29' E 008°30'0 0.0
2014-Jul-21 14:31N 53°29' E 008°30'0 0.0
2014-Jul-21 13:31N 53°29' E 008°30'0 0.0
2014-Jul-21 12:31N 53°29' E 008°30'0 0.0
2014-Jul-21 11:31N 53°29' E 008°30'0 0.0
2014-Jul-21 10:31N 53°29' E 008°30'0 0.0
2014-Jul-21 09:31N 53°29' E 008°30'0 0.0
2014-Jul-21 08:31N 53°29' E 008°30'0 0.0
2014-Jul-21 07:31N 53°29' E 008°30'0 0.0
2014-Jul-21 06:31N 53°29' E 008°30'0 0.0
2014-Jul-21 05:28N 53°29' E 008°30'0 0.0
2014-Jul-21 04:28N 53°29' E 008°30'0 0.0
2014-Jul-21 03:31N 53°29' E 008°30'0 0.0
2014-Jul-21 02:31N 53°29' E 008°30'0 0.0
2014-Jul-21 01:31N 53°29' E 008°30'0 0.0
2014-Jul-21 00:28N 53°29' E 008°30'0 0.0
2014-Jul-20 23:31N 53°29' E 008°30'0 0.0
2014-Jul-20 22:31N 53°29' E 008°30'0 0.0
2014-Jul-20 21:31N 53°29' E 008°30'0 0.0
2014-Jul-20 20:31N 53°29' E 008°30'0 0.3
2014-Jul-20 19:33N 53°30' E 008°30'7 6.7
2014-Jul-20 18:33N 53°36' E 008°30'1313.3
2014-Jul-20 17:33N 53°45' E 008°13'1312.8
2014-Jul-20 16:33N 53°52' E 007°54'10 7.9
2014-Jul-20 15:15N 53°54' E 007°37'38 9.7
2014-Jul-20 11:19N 53°47' E 006°34'910.1
2014-Jul-20 10:26N 53°44' E 006°19'9 9.9
2014-Jul-20 09:33N 53°42' E 006°05'1010.1
2014-Jul-20 08:34N 53°38' E 005°49'1010.3
2014-Jul-20 07:33N 53°35' E 005°32'1110.9
2014-Jul-20 06:33N 53°32' E 005°15'1110.9
2014-Jul-20 05:33N 53°28' E 004°58'  

Dump ship's entire track history